Time;durP1;ratioP1;P1;durP2;ratioP2;P2;SDS_P1;SDS_P2;PMS_P1;PMS_P2;Temp;Humidity;BMP_temperature;BMP_pressure;BME280_temperature;BME280_humidity;BME280_pressure;Samples;Min_cycle;Max_cycle;Signal;HPM_P1;HPM_P2
2023/08/05 00:00:59;;;;;;;0.00;0.00;;;16.70;99.90;;;;;;5063385;28;20036;-77
2023/08/05 00:03:25;;;;;;;0.00;0.00;;;16.70;99.90;;;;;;5060078;28;20529;-77
2023/08/05 00:05:51;;;;;;;0.00;0.00;;;16.60;99.90;;;;;;5062779;28;20024;-80
2023/08/05 00:08:17;;;;;;;0.00;0.00;;;16.60;99.90;;;;;;5062064;28;20055;-76
2023/08/05 00:10:46;;;;;;;0.00;0.00;;;16.60;99.90;;;;;;5076645;28;20028;-80
2023/08/05 00:13:12;;;;;;;0.00;0.00;;;16.50;99.90;;;;;;5069705;28;20040;-78
2023/08/05 00:15:41;;;;;;;0.00;0.00;;;16.60;99.90;;;;;;5066060;28;20017;-77
2023/08/05 00:18:06;;;;;;;0.00;0.00;;;16.60;99.90;;;;;;5066389;28;20033;-79
2023/08/05 00:20:32;;;;;;;0.00;0.00;;;16.60;99.90;;;;;;5064447;28;20093;-80
2023/08/05 00:22:58;;;;;;;0.00;0.00;;;16.60;99.90;;;;;;5062311;28;20029;-80
2023/08/05 00:25:23;;;;;;;0.00;0.00;;;16.60;99.90;;;;;;5055484;28;20096;-81
2023/08/05 00:27:49;;;;;;;0.00;0.00;;;16.60;99.90;;;;;;5059010;28;20037;-77
2023/08/05 00:30:14;;;;;;;0.00;0.00;;;16.70;99.90;;;;;;5058582;28;20013;-79
2023/08/05 00:32:40;;;;;;;0.00;0.00;;;16.70;99.90;;;;;;5057120;28;20052;-79
2023/08/05 00:35:07;;;;;;;0.00;0.00;;;16.70;99.90;;;;;;5054308;28;20104;-82
2023/08/05 00:37:34;;;;;;;0.03;0.00;;;16.70;99.90;;;;;;5076010;28;20499;-80
2023/08/05 00:40:01;;;;;;;0.00;0.00;;;16.80;99.90;;;;;;5065214;28;20021;-81
2023/08/05 00:42:27;;;;;;;0.22;0.22;;;16.80;99.90;;;;;;5058459;28;20594;-79
2023/08/05 00:44:53;;;;;;;0.17;0.17;;;16.80;99.90;;;;;;5059640;28;20032;-80
2023/08/05 00:47:19;;;;;;;0.00;0.00;;;16.80;99.90;;;;;;5058738;28;20440;-76
2023/08/05 00:49:51;;;;;;;0.00;0.00;;;16.80;99.90;;;;;;5060924;28;20564;-80
2023/08/05 00:52:20;;;;;;;0.00;0.00;;;16.80;99.90;;;;;;5059971;28;20085;-80
2023/08/05 00:54:46;;;;;;;0.00;0.00;;;16.80;99.90;;;;;;5058820;28;20043;-80
2023/08/05 00:57:13;;;;;;;0.00;0.00;;;16.80;99.90;;;;;;5058678;28;20223;-80
2023/08/05 00:59:40;;;;;;;0.00;0.00;;;16.80;99.90;;;;;;5062405;28;20025;-79
2023/08/05 01:02:06;;;;;;;0.00;0.00;;;16.80;99.90;;;;;;5060082;28;20047;-80
2023/08/05 01:04:32;;;;;;;0.00;0.00;;;16.80;99.90;;;;;;5064998;28;20001;-80
2023/08/05 01:06:59;;;;;;;0.00;0.00;;;16.70;99.90;;;;;;5061626;28;20040;-81
2023/08/05 01:09:25;;;;;;;;;;;16.80;99.90;;;;;;5066865;28;20032;-77
2023/08/05 01:11:51;;;;;;;0.00;0.00;;;16.80;99.90;;;;;;5065560;28;19966;-77
2023/08/05 01:14:17;;;;;;;0.00;0.00;;;16.80;99.90;;;;;;5083699;28;20093;-78
2023/08/05 01:16:43;;;;;;;0.00;0.00;;;16.80;99.90;;;;;;5078656;28;20029;-75
2023/08/05 01:19:20;;;;;;;0.00;0.00;;;16.70;99.90;;;;;;5059872;28;20222;-78
2023/08/05 01:21:49;;;;;;;;;;;16.60;99.90;;;;;;5068222;28;20013;-78
2023/08/05 01:24:31;;;;;;;0.00;0.00;;;16.70;99.90;;;;;;5068666;28;20013;-80
2023/08/05 01:26:58;;;;;;;0.00;0.00;;;16.70;99.90;;;;;;5064439;28;20013;-77
2023/08/05 01:29:24;;;;;;;0.00;0.00;;;16.60;99.90;;;;;;5067139;28;20021;-78
2023/08/05 01:31:52;;;;;;;0.00;0.00;;;16.60;99.90;;;;;;5068703;28;20048;-75
2023/08/05 01:34:18;;;;;;;0.00;0.00;;;16.60;99.90;;;;;;5068324;28;20020;-78
2023/08/05 01:36:43;;;;;;;0.00;0.00;;;16.60;99.90;;;;;;5083578;28;20019;-77
2023/08/05 01:39:09;;;;;;;0.00;0.00;;;16.60;99.90;;;;;;5088682;28;20024;-78
2023/08/05 01:41:35;;;;;;;0.00;0.00;;;16.70;99.90;;;;;;5074012;28;20033;-78
2023/08/05 01:44:00;;;;;;;0.00;0.00;;;16.70;99.90;;;;;;5071500;28;20122;-78
2023/08/05 01:46:26;;;;;;;0.00;0.00;;;16.70;99.90;;;;;;5074332;28;20009;-78
2023/08/05 01:48:52;;;;;;;0.00;0.00;;;16.70;99.90;;;;;;5067355;28;20017;-78
2023/08/05 01:51:17;;;;;;;0.22;0.22;;;16.60;99.90;;;;;;5065893;28;20017;-78
2023/08/05 01:53:43;;;;;;;0.00;0.00;;;16.60;99.90;;;;;;5063751;28;20082;-77
2023/08/05 01:56:09;;;;;;;0.00;0.00;;;16.60;99.90;;;;;;5066184;28;20059;-77
2023/08/05 01:58:34;;;;;;;0.00;0.00;;;16.60;99.90;;;;;;5064256;28;20074;-76
2023/08/05 02:01:00;;;;;;;0.00;0.00;;;16.60;99.90;;;;;;5067756;28;20029;-78
2023/08/05 02:03:26;;;;;;;0.00;0.00;;;16.70;99.90;;;;;;5062569;28;20044;-80
2023/08/05 02:05:51;;;;;;;0.00;0.00;;;16.70;99.90;;;;;;5066467;28;20017;-78
2023/08/05 02:08:17;;;;;;;0.00;0.00;;;16.80;99.90;;;;;;5066917;28;20317;-76
2023/08/05 02:10:43;;;;;;;0.00;0.00;;;16.80;99.90;;;;;;5064458;28;20089;-78
2023/08/05 02:13:08;;;;;;;0.00;0.00;;;16.80;99.90;;;;;;5057813;28;20037;-80
2023/08/05 02:15:34;;;;;;;0.00;0.00;;;16.80;99.90;;;;;;5061308;28;20043;-78
2023/08/05 02:18:02;;;;;;;0.00;0.00;;;16.70;99.90;;;;;;5068049;28;20013;-78
2023/08/05 02:20:27;;;;;;;0.00;0.00;;;16.60;99.90;;;;;;5066926;28;20055;-77
2023/08/05 02:22:53;;;;;;;0.00;0.00;;;16.50;99.90;;;;;;5065846;28;20112;-76
2023/08/05 02:25:18;;;;;;;0.00;0.00;;;16.50;99.90;;;;;;5061502;28;20132;-76
2023/08/05 02:27:44;;;;;;;0.00;0.00;;;16.60;99.90;;;;;;5068118;28;20021;-77
2023/08/05 02:30:10;;;;;;;0.10;0.10;;;16.60;99.90;;;;;;5061937;28;20029;-78
2023/08/05 02:32:35;;;;;;;0.00;0.00;;;16.70;99.90;;;;;;5066577;28;20286;-78
2023/08/05 02:35:01;;;;;;;0.00;0.00;;;16.80;99.90;;;;;;5063683;28;20037;-77
2023/08/05 02:37:27;;;;;;;0.00;0.00;;;16.80;99.90;;;;;;5074836;28;20059;-77
2023/08/05 02:39:52;;;;;;;0.00;0.00;;;16.80;99.90;;;;;;5064348;28;20054;-77
2023/08/05 02:42:18;;;;;;;0.10;0.10;;;16.90;99.90;;;;;;5069598;28;20028;-77
2023/08/05 02:44:44;;;;;;;0.00;0.00;;;16.90;99.90;;;;;;5073594;28;20017;-77
2023/08/05 02:47:09;;;;;;;0.43;0.43;;;16.90;99.90;;;;;;5069760;28;20024;-78
2023/08/05 02:49:35;;;;;;;0.00;0.00;;;16.90;99.90;;;;;;5043454;28;20033;-79
2023/08/05 02:52:00;;;;;;;0.00;0.00;;;16.90;99.90;;;;;;5043300;28;20032;-79
2023/08/05 02:54:27;;;;;;;0.00;0.00;;;16.80;99.90;;;;;;5040900;28;20036;-78
2023/08/05 02:56:53;;;;;;;0.00;0.00;;;16.70;99.90;;;;;;5043296;28;20040;-78
2023/08/05 02:59:18;;;;;;;0.00;0.00;;;16.60;99.90;;;;;;5043230;28;20025;-79
2023/08/05 03:01:44;;;;;;;0.40;0.10;;;16.60;99.90;;;;;;5041742;28;20432;-78
2023/08/05 03:04:10;;;;;;;0.00;0.00;;;16.60;99.90;;;;;;5060286;28;20306;-77
2023/08/05 03:06:35;;;;;;;0.00;0.00;;;16.70;99.90;;;;;;5056400;28;20033;-80
2023/08/05 03:09:01;;;;;;;0.00;0.00;;;16.60;99.90;;;;;;5065404;28;20025;-77
2023/08/05 03:11:33;;;;;;;0.00;0.00;;;16.50;99.90;;;;;;5067835;28;20028;-77
2023/08/05 03:13:58;;;;;;;0.00;0.00;;;16.50;99.90;;;;;;5066918;28;20051;-77
2023/08/05 03:16:24;;;;;;;0.00;0.00;;;16.50;99.90;;;;;;5070555;28;20226;-77
2023/08/05 03:18:50;;;;;;;0.00;0.00;;;16.60;99.90;;;;;;5081785;28;20248;-78
2023/08/05 03:21:15;;;;;;;0.00;0.00;;;16.60;99.90;;;;;;5067263;28;20337;-77
2023/08/05 03:23:41;;;;;;;0.00;0.00;;;16.60;99.90;;;;;;5066730;28;20037;-77
2023/08/05 03:26:07;;;;;;;0.00;0.00;;;16.60;99.90;;;;;;5063024;28;20005;-78
2023/08/05 03:28:32;;;;;;;0.00;0.00;;;16.50;99.90;;;;;;5067008;28;20009;-78
2023/08/05 03:30:59;;;;;;;0.00;0.00;;;16.50;99.90;;;;;;5067972;28;20039;-75
2023/08/05 03:33:24;;;;;;;0.00;0.00;;;16.50;99.90;;;;;;5065586;28;20047;-78
2023/08/05 03:35:50;;;;;;;0.00;0.00;;;16.50;99.90;;;;;;5072758;28;20503;-77
2023/08/05 03:38:17;;;;;;;0.08;0.08;;;16.50;99.90;;;;;;5074352;28;20290;-78
2023/08/05 03:40:44;;;;;;;0.00;0.00;;;16.60;99.90;;;;;;5063416;28;20021;-77
2023/08/05 03:43:09;;;;;;;0.00;0.00;;;16.70;99.90;;;;;;5068614;28;20048;-76
2023/08/05 03:45:35;;;;;;;0.00;0.00;;;16.80;99.90;;;;;;5078425;28;20008;-77
2023/08/05 03:48:01;;;;;;;0.00;0.00;;;16.80;99.90;;;;;;5072761;28;20029;-79
2023/08/05 03:50:28;;;;;;;0.00;0.00;;;16.80;99.90;;;;;;5058357;28;20043;-77
2023/08/05 03:52:54;;;;;;;0.00;0.00;;;16.90;99.90;;;;;;5049787;28;20876;-80
2023/08/05 03:55:21;;;;;;;0.00;0.00;;;17.00;99.90;;;;;;5049831;28;20037;-79
2023/08/05 03:57:47;;;;;;;0.00;0.00;;;17.10;99.90;;;;;;5047298;28;20025;-79
2023/08/05 04:00:14;;;;;;;0.00;0.00;;;17.10;99.90;;;;;;5050089;28;20545;-79
2023/08/05 04:02:43;;;;;;;0.00;0.00;;;17.10;99.90;;;;;;5046639;28;20110;-80
2023/08/05 04:05:10;;;;;;;0.00;0.00;;;17.10;99.90;;;;;;5050236;28;20021;-80
2023/08/05 04:07:36;;;;;;;0.00;0.00;;;17.10;99.90;;;;;;5045752;28;20021;-80
2023/08/05 04:10:02;;;;;;;0.25;0.13;;;17.20;99.90;;;;;;5048936;28;20028;-79
2023/08/05 04:12:28;;;;;;;0.55;0.55;;;17.20;99.90;;;;;;5046118;28;20158;-77
2023/08/05 04:14:58;;;;;;;0.00;0.00;;;17.20;99.90;;;;;;5050731;28;20092;-80
2023/08/05 04:17:24;;;;;;;0.00;0.00;;;17.20;99.90;;;;;;5068163;28;20033;-80
2023/08/05 04:19:50;;;;;;;0.00;0.00;;;17.20;99.90;;;;;;5056693;28;20031;-79
2023/08/05 04:22:19;;;;;;;0.00;0.00;;;17.20;99.90;;;;;;5063971;28;20158;-77
2023/08/05 04:24:45;;;;;;;0.05;0.05;;;17.20;99.90;;;;;;5067558;28;20055;-77
2023/08/05 04:27:11;;;;;;;0.00;0.00;;;17.20;99.90;;;;;;5068242;28;20009;-77
2023/08/05 04:29:37;;;;;;;0.10;0.03;;;17.20;99.90;;;;;;5070739;28;20013;-78
2023/08/05 04:32:03;;;;;;;0.00;0.00;;;17.10;99.90;;;;;;5052988;28;20098;-78
2023/08/05 04:34:33;;;;;;;0.10;0.10;;;17.20;99.90;;;;;;5045555;28;20051;-78
2023/08/05 04:37:22;;;;;;;0.00;0.00;;;17.20;99.90;;;;;;5062277;28;20476;-78
2023/08/05 04:39:49;;;;;;;0.00;0.00;;;17.10;99.90;;;;;;5047398;28;20132;-77
2023/08/05 04:42:17;;;;;;;0.08;0.03;;;17.20;99.90;;;;;;5059045;28;20021;-77
2023/08/05 04:44:43;;;;;;;0.00;0.00;;;17.20;99.90;;;;;;5075038;28;20020;-77
2023/08/05 04:47:10;;;;;;;0.00;0.00;;;17.30;99.90;;;;;;5090291;28;20018;-77
2023/08/05 04:49:38;;;;;;;0.00;0.00;;;17.30;99.90;;;;;;5077953;28;20036;-79
2023/08/05 04:52:06;;;;;;;0.00;0.00;;;17.30;99.90;;;;;;5066429;28;20089;-78
2023/08/05 04:54:43;;;;;;;0.00;0.00;;;17.30;99.90;;;;;;5071571;28;20076;-75
2023/08/05 04:57:11;;;;;;;0.00;0.00;;;17.10;99.90;;;;;;5069835;28;20578;-77
2023/08/05 04:59:36;;;;;;;0.00;0.00;;;17.00;99.90;;;;;;5069354;28;20021;-77
2023/08/05 05:02:02;;;;;;;0.00;0.00;;;16.80;99.90;;;;;;5054918;28;20039;-78
2023/08/05 05:07:04;;;;;;;0.00;0.00;;;16.60;99.90;;;;;;5967061;22;19937;-76
2023/08/05 05:09:30;;;;;;;0.00;0.00;;;16.40;99.90;;;;;;5028597;28;20062;-79
2023/08/05 05:11:58;;;;;;;0.00;0.00;;;16.50;99.90;;;;;;5027742;28;20121;-77
2023/08/05 05:14:25;;;;;;;0.47;0.47;;;16.50;99.90;;;;;;5028692;28;20036;-77
2023/08/05 05:16:51;;;;;;;0.00;0.00;;;16.60;99.90;;;;;;5028824;28;20110;-78
2023/08/05 05:19:19;;;;;;;0.00;0.00;;;16.40;99.90;;;;;;5023856;28;20022;-77
2023/08/05 05:21:45;;;;;;;0.00;0.00;;;16.40;99.90;;;;;;5026338;28;20036;-78
2023/08/05 05:24:12;;;;;;;0.00;0.00;;;16.60;99.90;;;;;;5023668;28;20077;-79
2023/08/05 05:26:38;;;;;;;0.03;0.03;;;16.60;99.90;;;;;;5026501;28;20021;-78
2023/08/05 05:29:04;;;;;;;0.00;0.00;;;16.70;99.90;;;;;;5023802;28;20077;-78
2023/08/05 05:31:30;;;;;;;0.00;0.00;;;16.60;99.90;;;;;;5027275;28;20034;-77
2023/08/05 05:33:59;;;;;;;0.00;0.00;;;16.70;99.90;;;;;;5027346;28;20026;-78
2023/08/05 05:36:25;;;;;;;0.00;0.00;;;16.80;99.90;;;;;;5027675;28;20033;-77
2023/08/05 05:41:26;;;;;;;0.00;0.00;;;16.80;99.90;;;;;;5144608;22;20049;-76
2023/08/05 05:43:51;;;;;;;0.00;0.00;;;16.80;99.90;;;;;;5029444;28;20049;-81
2023/08/05 05:46:19;;;;;;;0.00;0.00;;;16.80;99.90;;;;;;5043154;28;20035;-77
2023/08/05 05:48:45;;;;;;;0.00;0.00;;;16.80;99.90;;;;;;5048111;28;20026;-77
2023/08/05 05:51:11;;;;;;;0.00;0.00;;;16.80;99.90;;;;;;5043395;28;20020;-80
2023/08/05 05:53:36;;;;;;;0.00;0.00;;;16.90;99.90;;;;;;5042769;28;20053;-78
2023/08/05 05:56:03;;;;;;;0.00;0.00;;;16.90;99.90;;;;;;5039478;28;20024;-77
2023/08/05 05:58:29;;;;;;;0.00;0.00;;;17.00;99.90;;;;;;5043547;28;20021;-78
2023/08/05 06:00:55;;;;;;;0.00;0.00;;;16.90;99.90;;;;;;5044338;28;20017;-77
2023/08/05 06:03:21;;;;;;;0.00;0.00;;;17.00;99.90;;;;;;5044254;28;20018;-78
2023/08/05 06:05:50;;;;;;;0.00;0.00;;;17.00;99.90;;;;;;5060004;28;20036;-79
2023/08/05 06:08:15;;;;;;;0.00;0.00;;;17.00;99.90;;;;;;5052666;28;20033;-78
2023/08/05 06:10:41;;;;;;;0.00;0.00;;;17.00;99.90;;;;;;5062477;28;20050;-76
2023/08/05 06:13:07;;;;;;;0.00;0.00;;;17.00;99.90;;;;;;5064207;28;20036;-78
2023/08/05 06:15:32;;;;;;;0.00;0.00;;;17.00;99.90;;;;;;5044926;28;20235;-80
2023/08/05 06:17:58;;;;;;;0.00;0.00;;;17.00;99.90;;;;;;5062874;28;20060;-80
2023/08/05 06:20:24;;;;;;;0.00;0.00;;;17.10;99.90;;;;;;5058368;28;20055;-80
2023/08/05 06:22:51;;;;;;;0.00;0.00;;;17.20;99.90;;;;;;5035665;28;20029;-80
2023/08/05 06:25:16;;;;;;;0.00;0.00;;;17.20;99.90;;;;;;5030936;28;20388;-81
2023/08/05 06:27:42;;;;;;;0.00;0.00;;;17.10;99.90;;;;;;5055977;28;20025;-77
2023/08/05 06:30:08;;;;;;;0.00;0.00;;;17.20;99.90;;;;;;5053787;28;20028;-80
2023/08/05 06:32:34;;;;;;;0.00;0.00;;;17.20;99.90;;;;;;5039890;28;20021;-80
2023/08/05 06:34:59;;;;;;;0.00;0.00;;;17.20;99.90;;;;;;5061553;28;20045;-76
2023/08/05 06:37:25;;;;;;;0.00;0.00;;;17.20;99.90;;;;;;5061541;28;20029;-77
2023/08/05 06:39:51;;;;;;;0.00;0.00;;;17.20;99.90;;;;;;5061932;28;20029;-80
2023/08/05 06:42:16;;;;;;;0.00;0.00;;;17.20;99.90;;;;;;5057125;28;20012;-78
2023/08/05 06:44:43;;;;;;;0.00;0.00;;;17.20;99.90;;;;;;5063719;28;20025;-77
2023/08/05 06:47:09;;;;;;;0.00;0.00;;;17.30;99.90;;;;;;5059502;28;20025;-80
2023/08/05 06:49:35;;;;;;;0.00;0.00;;;17.30;99.90;;;;;;5042822;28;20043;-77
2023/08/05 06:52:01;;;;;;;0.00;0.00;;;17.30;99.90;;;;;;5060708;28;20035;-78
2023/08/05 06:54:26;;;;;;;0.00;0.00;;;17.30;99.90;;;;;;5063095;28;20077;-77
2023/08/05 06:56:52;;;;;;;0.00;0.00;;;17.30;99.90;;;;;;5043282;28;20519;-78
2023/08/05 06:59:18;;;;;;;0.00;0.00;;;17.30;99.90;;;;;;5045474;28;20324;-80
2023/08/05 07:01:44;;;;;;;0.00;0.00;;;17.30;99.90;;;;;;5037750;28;20148;-77
2023/08/05 07:04:10;;;;;;;0.00;0.00;;;17.30;99.90;;;;;;5295457;22;20024;-79
2023/08/05 07:06:36;;;;;;;0.00;0.00;;;17.20;99.90;;;;;;5089008;28;20120;-77
2023/08/05 07:09:03;;;;;;;0.00;0.00;;;17.20;99.90;;;;;;5098896;28;20036;-81
2023/08/05 07:11:29;;;;;;;0.00;0.00;;;17.20;99.90;;;;;;5089050;28;20024;-77
2023/08/05 07:13:55;;;;;;;0.00;0.00;;;16.80;99.90;;;;;;5078521;28;20141;-79
2023/08/05 07:16:21;;;;;;;0.00;0.00;;;17.60;99.90;;;;;;5065316;28;20035;-81
2023/08/05 07:18:47;;;;;;;0.00;0.00;;;17.20;99.90;;;;;;5089829;28;20028;-80
2023/08/05 07:21:15;;;;;;;0.00;0.00;;;17.70;99.90;;;;;;5089381;28;20054;-80
2023/08/05 07:23:41;;;;;;;0.00;0.00;;;17.10;99.90;;;;;;5074711;28;20112;-77
2023/08/05 07:26:06;;;;;;;0.00;0.00;;;17.40;99.90;;;;;;5079017;28;20050;-79
2023/08/05 07:28:32;;;;;;;0.15;0.15;;;17.40;99.90;;;;;;5093423;28;20028;-76
2023/08/05 07:31:07;;;;;;;0.00;0.00;;;17.40;99.90;;;;;;5096349;28;20084;-77
2023/08/05 07:33:33;;;;;;;0.00;0.00;;;17.50;99.90;;;;;;5070828;28;20036;-80
2023/08/05 07:36:13;;;;;;;0.00;0.00;;;17.60;99.90;;;;;;5070027;28;20045;-80
2023/08/05 07:38:45;;;;;;;0.00;0.00;;;17.70;99.90;;;;;;5093934;28;20036;-79
2023/08/05 07:41:12;;;;;;;0.00;0.00;;;17.90;99.90;;;;;;5088863;28;20028;-79
2023/08/05 07:43:38;;;;;;;0.00;0.00;;;17.90;99.90;;;;;;5077025;28;20423;-77
2023/08/05 07:46:05;;;;;;;0.00;0.00;;;18.00;99.90;;;;;;5072387;28;20020;-78
2023/08/05 07:48:35;;;;;;;0.00;0.00;;;18.00;99.90;;;;;;5072392;28;20035;-76
2023/08/05 07:51:02;;;;;;;0.00;0.00;;;18.10;99.90;;;;;;5074045;28;20028;-77
2023/08/05 07:53:30;;;;;;;0.00;0.00;;;18.20;99.90;;;;;;5095134;28;20016;-79
2023/08/05 07:55:58;;;;;;;0.00;0.00;;;18.20;99.90;;;;;;5098366;28;20437;-80
2023/08/05 07:58:24;;;;;;;0.00;0.00;;;18.30;99.90;;;;;;5074028;28;20024;-79
2023/08/05 08:00:54;;;;;;;;;;;18.30;99.90;;;;;;5078192;28;20131;-79
2023/08/05 08:03:21;;;;;;;0.00;0.00;;;18.20;99.90;;;;;;5074001;28;19909;-79
2023/08/05 08:05:47;;;;;;;0.20;0.03;;;18.20;99.90;;;;;;5055480;28;20095;-77
2023/08/05 08:08:13;;;;;;;0.00;0.00;;;18.20;99.90;;;;;;5044064;28;20093;-79
2023/08/05 08:10:39;;;;;;;0.00;0.00;;;18.30;99.90;;;;;;5042405;28;20092;-79
2023/08/05 08:13:05;;;;;;;0.00;0.00;;;18.30;99.90;;;;;;5064660;28;20140;-79
2023/08/05 08:15:31;;;;;;;;;;;18.30;99.90;;;;;;5061264;28;20051;-77
2023/08/05 08:17:57;;;;;;;0.00;0.00;;;18.30;99.90;;;;;;5051418;28;20219;-78
2023/08/05 08:20:22;;;;;;;0.00;0.00;;;18.30;99.90;;;;;;5059850;28;20112;-80
2023/08/05 08:22:48;;;;;;;0.00;0.00;;;18.30;99.90;;;;;;5068896;28;20028;-80
2023/08/05 08:25:14;;;;;;;0.00;0.00;;;18.30;99.90;;;;;;5081454;28;20687;-78
2023/08/05 08:27:39;;;;;;;0.00;0.00;;;18.30;99.90;;;;;;5055741;28;20028;-80
2023/08/05 08:30:06;;;;;;;0.00;0.00;;;18.30;99.90;;;;;;5051572;28;20387;-77
2023/08/05 08:32:31;;;;;;;0.00;0.00;;;18.40;99.90;;;;;;5049683;28;20467;-77
2023/08/05 08:34:57;;;;;;;0.00;0.00;;;18.30;99.90;;;;;;5064207;28;20107;-79
2023/08/05 08:37:22;;;;;;;0.00;0.00;;;18.30;99.90;;;;;;5054191;28;20510;-77
2023/08/05 08:39:48;;;;;;;0.00;0.00;;;18.30;99.90;;;;;;5056095;28;20028;-80
2023/08/05 08:42:18;;;;;;;0.00;0.00;;;18.30;99.90;;;;;;5039982;28;20036;-78
2023/08/05 08:44:45;;;;;;;0.00;0.00;;;18.20;99.90;;;;;;5053636;28;20021;-79
2023/08/05 08:47:11;;;;;;;0.00;0.00;;;18.20;99.90;;;;;;5047652;28;20021;-80
2023/08/05 08:49:37;;;;;;;0.00;0.00;;;18.20;99.90;;;;;;5047764;28;20031;-79
2023/08/05 08:52:05;;;;;;;0.00;0.00;;;18.20;99.90;;;;;;5064843;28;20063;-78
2023/08/05 08:54:31;;;;;;;0.00;0.00;;;18.30;99.90;;;;;;5027917;28;20052;-76
2023/08/05 08:56:57;;;;;;;0.00;0.00;;;18.30;99.90;;;;;;5025858;28;20017;-79
2023/08/05 08:59:22;;;;;;;0.00;0.00;;;18.30;99.90;;;;;;5065939;28;20441;-79
2023/08/05 09:01:49;;;;;;;0.00;0.00;;;18.20;99.90;;;;;;5058358;28;20036;-80
2023/08/05 09:04:16;;;;;;;0.00;0.00;;;18.20;99.90;;;;;;5066154;28;20098;-78
2023/08/05 09:06:44;;;;;;;0.00;0.00;;;18.20;99.90;;;;;;5043433;28;20166;-78
2023/08/05 09:09:09;;;;;;;0.00;0.00;;;18.20;99.90;;;;;;5059324;28;20024;-79
2023/08/05 09:11:35;;;;;;;0.00;0.00;;;18.20;99.90;;;;;;5079462;28;20394;-81
2023/08/05 09:14:03;;;;;;;0.00;0.00;;;18.20;99.90;;;;;;5051007;28;20265;-80
2023/08/05 09:16:29;;;;;;;0.00;0.00;;;18.10;99.90;;;;;;5044155;28;20029;-79
2023/08/05 09:18:55;;;;;;;0.00;0.00;;;18.20;99.90;;;;;;5044657;28;20043;-79
2023/08/05 09:21:28;;;;;;;0.00;0.00;;;18.10;99.90;;;;;;5052067;28;20060;-80
2023/08/05 09:23:55;;;;;;;3.30;0.38;;;18.20;99.90;;;;;;5060088;28;20028;-79
2023/08/05 09:26:31;;;;;;;0.00;0.00;;;18.20;99.90;;;;;;5050803;28;20025;-77
2023/08/05 09:28:59;;;;;;;0.20;0.20;;;18.20;99.90;;;;;;5050154;28;20080;-81
2023/08/05 09:31:25;;;;;;;0.05;0.00;;;18.30;99.90;;;;;;5056439;28;20021;-80
2023/08/05 09:33:52;;;;;;;0.00;0.00;;;18.30;99.90;;;;;;5064346;28;20020;-80
2023/08/05 09:36:22;;;;;;;0.00;0.00;;;18.30;99.90;;;;;;5056881;28;20040;-79
2023/08/05 09:39:11;;;;;;;0.00;0.00;;;18.20;99.90;;;;;;5060014;28;20028;-79
2023/08/05 09:41:37;;;;;;;0.10;0.10;;;18.10;99.90;;;;;;5071294;28;20035;-79
2023/08/05 09:44:05;;;;;;;0.00;0.00;;;18.00;99.90;;;;;;5041165;28;20025;-76
2023/08/05 09:46:40;;;;;;;0.00;0.00;;;18.10;99.90;;;;;;5057542;28;20028;-79
2023/08/05 09:49:12;;;;;;;0.00;0.00;;;18.10;99.90;;;;;;5044958;28;20028;-79
2023/08/05 09:51:42;;;;;;;0.00;0.00;;;18.10;99.90;;;;;;5058135;28;20023;-80
2023/08/05 09:54:14;;;;;;;0.00;0.00;;;18.10;99.90;;;;;;5052348;28;20025;-79
2023/08/05 09:56:40;;;;;;;0.00;0.00;;;17.90;99.90;;;;;;5044570;28;20032;-78
2023/08/05 09:59:12;;;;;;;0.00;0.00;;;17.80;99.90;;;;;;5056048;28;20025;-79
2023/08/05 10:01:39;;;;;;;0.00;0.00;;;17.70;99.90;;;;;;5030671;28;20029;-79
2023/08/05 10:04:06;;;;;;;0.00;0.00;;;17.80;99.90;;;;;;5057200;28;20384;-77
2023/08/05 10:06:37;;;;;;;0.00;0.00;;;17.80;99.90;;;;;;5061224;28;20568;-77
2023/08/05 10:09:03;;;;;;;0.00;0.00;;;17.90;99.90;;;;;;5058064;28;20031;-77
2023/08/05 10:11:29;;;;;;;0.00;0.00;;;17.80;99.90;;;;;;5050581;28;20088;-76
2023/08/05 10:13:56;;;;;;;;;;;17.70;99.90;;;;;;5059862;28;20028;-77
2023/08/05 10:16:23;;;;;;;0.00;0.00;;;17.70;99.90;;;;;;5052014;28;19931;-81
2023/08/05 10:18:49;;;;;;;0.00;0.00;;;17.70;99.90;;;;;;5045645;28;20044;-80
2023/08/05 10:21:36;;;;;;;0.00;0.00;;;17.70;99.90;;;;;;5066282;28;20024;-80
2023/08/05 10:24:03;;;;;;;0.00;0.00;;;17.70;99.90;;;;;;5044005;28;20081;-79
2023/08/05 10:26:49;;;;;;;0.00;0.00;;;17.70;99.90;;;;;;5069451;28;20070;-79
2023/08/05 10:29:28;;;;;;;0.00;0.00;;;17.80;99.90;;;;;;5054030;28;20034;-80
2023/08/05 10:32:16;;;;;;;0.00;0.00;;;17.70;99.90;;;;;;5050573;28;20048;-80
2023/08/05 10:34:41;;;;;;;0.00;0.00;;;17.80;99.90;;;;;;5052717;28;20032;-79
2023/08/05 10:37:07;;;;;;;0.00;0.00;;;17.80;99.90;;;;;;5058865;28;20024;-80
2023/08/05 10:39:39;;;;;;;0.00;0.00;;;18.00;99.90;;;;;;5046684;28;20430;-79
2023/08/05 10:42:32;;;;;;;0.00;0.00;;;18.20;99.90;;;;;;5063918;28;20577;-80
2023/08/05 10:45:03;;;;;;;0.00;0.00;;;18.40;99.90;;;;;;5047803;28;20084;-79
2023/08/05 10:47:29;;;;;;;0.00;0.00;;;18.40;99.90;;;;;;5045590;28;20021;-78
2023/08/05 10:49:56;;;;;;;0.00;0.00;;;18.50;99.90;;;;;;5043551;28;20056;-79
2023/08/05 10:52:22;;;;;;;0.15;0.15;;;18.60;99.90;;;;;;5073158;28;20088;-80
2023/08/05 10:54:49;;;;;;;0.00;0.00;;;18.60;99.90;;;;;;5054524;28;20048;-80
2023/08/05 10:57:33;;;;;;;0.00;0.00;;;18.70;99.90;;;;;;5045554;28;20053;-79
2023/08/05 11:00:00;;;;;;;0.00;0.00;;;18.70;99.90;;;;;;5051336;28;20029;-79
2023/08/05 11:02:27;;;;;;;0.00;0.00;;;18.60;99.90;;;;;;5043368;28;20450;-79
2023/08/05 11:05:13;;;;;;;0.00;0.00;;;18.50;99.90;;;;;;5036102;28;20032;-77
2023/08/05 11:07:40;;;;;;;0.00;0.00;;;18.30;99.90;;;;;;5023473;28;20029;-78
2023/08/05 11:10:07;;;;;;;0.00;0.00;;;18.20;99.90;;;;;;5043893;28;20032;-79
2023/08/05 11:12:32;;;;;;;0.00;0.00;;;18.00;99.90;;;;;;5053142;28;20480;-78
2023/08/05 11:15:01;;;;;;;0.00;0.00;;;17.90;99.90;;;;;;5042608;28;20086;-78
2023/08/05 11:17:26;;;;;;;0.00;0.00;;;17.80;99.90;;;;;;5042683;28;20039;-77
2023/08/05 11:19:54;;;;;;;0.00;0.00;;;17.90;99.90;;;;;;5049218;28;20403;-79
2023/08/05 11:22:26;;;;;;;0.00;0.00;;;18.20;99.90;;;;;;5065285;28;20630;-78
2023/08/05 11:25:01;;;;;;;0.00;0.00;;;18.30;99.90;;;;;;5055959;28;20029;-79
2023/08/05 11:27:32;;;;;;;0.00;0.00;;;18.40;99.90;;;;;;5046746;28;20028;-78
2023/08/05 11:29:58;;;;;;;0.00;0.00;;;18.30;99.90;;;;;;5060761;28;20468;-76
2023/08/05 11:32:24;;;;;;;0.00;0.00;;;18.30;99.90;;;;;;5040005;28;20035;-77
2023/08/05 11:34:50;;;;;;;0.00;0.00;;;18.20;99.90;;;;;;5039346;28;20064;-79
2023/08/05 11:37:23;;;;;;;0.00;0.00;;;18.10;99.90;;;;;;5023399;28;20029;-77
2023/08/05 11:39:49;;;;;;;0.00;0.00;;;18.00;99.90;;;;;;5040856;28;20412;-79
2023/08/05 11:42:15;;;;;;;0.00;0.00;;;18.00;99.90;;;;;;5053289;28;20091;-78
2023/08/05 11:44:41;;;;;;;0.00;0.00;;;18.00;99.90;;;;;;5018542;28;20104;-80
2023/08/05 11:47:07;;;;;;;0.00;0.00;;;18.00;99.90;;;;;;5057555;28;20108;-78
2023/08/05 11:49:33;;;;;;;0.00;0.00;;;17.90;99.90;;;;;;5060464;28;20017;-79
2023/08/05 11:51:58;;;;;;;0.00;0.00;;;17.90;99.90;;;;;;5023428;28;20033;-79
2023/08/05 11:54:29;;;;;;;0.00;0.00;;;17.80;99.90;;;;;;5040761;28;20020;-78
2023/08/05 11:56:56;;;;;;;0.00;0.00;;;17.70;99.90;;;;;;5056067;28;20027;-77
2023/08/05 11:59:38;;;;;;;0.10;0.00;;;17.50;99.90;;;;;;5064406;28;20497;-78
2023/08/05 12:02:04;;;;;;;0.00;0.00;;;17.30;99.90;;;;;;5045226;28;20492;-78
2023/08/05 12:04:30;;;;;;;0.08;0.00;;;17.40;99.90;;;;;;5040877;28;20037;-79
2023/08/05 12:06:55;;;;;;;0.00;0.00;;;17.40;99.90;;;;;;5062364;28;20039;-81
2023/08/05 12:09:21;;;;;;;0.00;0.00;;;17.50;99.90;;;;;;5049658;28;20228;-81
2023/08/05 12:11:47;;;;;;;0.00;0.00;;;17.50;99.90;;;;;;5035975;28;20033;-79
2023/08/05 12:14:13;;;;;;;0.00;0.00;;;17.40;99.90;;;;;;5024896;28;20041;-77
2023/08/05 12:16:38;;;;;;;0.00;0.00;;;17.30;99.90;;;;;;5052867;28;20081;-79
2023/08/05 12:19:04;;;;;;;0.00;0.00;;;17.30;99.90;;;;;;5064660;28;20040;-80
2023/08/05 12:21:29;;;;;;;0.00;0.00;;;17.20;99.90;;;;;;5044802;28;20572;-78
2023/08/05 12:23:55;;;;;;;0.00;0.00;;;17.20;99.90;;;;;;5041919;28;20029;-76
2023/08/05 12:26:27;;;;;;;0.00;0.00;;;17.20;99.90;;;;;;5047880;28;20325;-78
2023/08/05 12:28:53;;;;;;;0.00;0.00;;;17.30;99.90;;;;;;5057543;28;20047;-77
2023/08/05 12:31:18;;;;;;;0.00;0.00;;;17.40;99.90;;;;;;5069463;28;20095;-78
2023/08/05 12:33:44;;;;;;;0.00;0.00;;;17.60;99.90;;;;;;5071113;28;20050;-76
2023/08/05 12:36:10;;;;;;;0.25;0.25;;;17.70;99.90;;;;;;5064146;28;20069;-77
2023/08/05 12:38:36;;;;;;;0.00;0.00;;;17.80;99.90;;;;;;5080697;28;20028;-75
2023/08/05 12:41:01;;;;;;;0.00;0.00;;;17.90;99.90;;;;;;5047284;28;20027;-77
2023/08/05 12:43:27;;;;;;;0.00;0.00;;;17.90;99.90;;;;;;5005441;28;20072;-77
2023/08/05 12:45:53;;;;;;;0.00;0.00;;;17.80;99.90;;;;;;5041361;28;20115;-77
2023/08/05 12:48:19;;;;;;;0.00;0.00;;;17.80;99.90;;;;;;5046015;28;20036;-78
2023/08/05 12:50:50;;;;;;;0.00;0.00;;;17.80;99.90;;;;;;5045822;28;20036;-78
2023/08/05 12:53:16;;;;;;;0.00;0.00;;;17.80;99.90;;;;;;5027414;28;20540;-77